sensor_id;sensor_type;location;lat;lon;timestamp;pressure;altitude;pressure_sealevel;temperature;humidity
7670;BME280;3877;42.562;27.636;2023-07-29T00:00:58;101395.03;;;21.36;100.00
7670;BME280;3877;42.562;27.636;2023-07-29T00:03:26;101408.97;;;21.42;100.00
7670;BME280;3877;42.562;27.636;2023-07-29T00:05:56;101371.84;;;21.15;100.00
7670;BME280;3877;42.562;27.636;2023-07-29T00:08:23;101407.31;;;21.41;100.00
7670;BME280;3877;42.562;27.636;2023-07-29T00:10:50;101407.25;;;21.37;100.00
7670;BME280;3877;42.562;27.636;2023-07-29T00:13:19;101401.41;;;21.30;100.00
7670;BME280;3877;42.562;27.636;2023-07-29T00:15:46;101402.69;;;21.32;100.00
7670;BME280;3877;42.562;27.636;2023-07-29T00:18:13;101398.19;;;21.31;100.00
7670;BME280;3877;42.562;27.636;2023-07-29T00:20:41;101396.13;;;21.28;100.00
7670;BME280;3877;42.562;27.636;2023-07-29T00:23:08;101383.31;;;21.19;100.00
7670;BME280;3877;42.562;27.636;2023-07-29T00:25:35;101394.78;;;21.22;100.00
7670;BME280;3877;42.562;27.636;2023-07-29T00:28:02;101390.41;;;21.28;100.00
7670;BME280;3877;42.562;27.636;2023-07-29T00:30:31;101390.72;;;21.23;100.00
7670;BME280;3877;42.562;27.636;2023-07-29T00:32:58;101391.56;;;21.24;100.00
7670;BME280;3877;42.562;27.636;2023-07-29T00:35:25;101390.66;;;21.20;100.00
7670;BME280;3877;42.562;27.636;2023-07-29T00:37:53;101393.91;;;21.18;100.00
7670;BME280;3877;42.562;27.636;2023-07-29T00:40:21;101391.06;;;21.18;100.00
7670;BME280;3877;42.562;27.636;2023-07-29T00:42:49;101384.91;;;21.16;100.00
7670;BME280;3877;42.562;27.636;2023-07-29T00:45:17;101393.06;;;21.18;100.00
7670;BME280;3877;42.562;27.636;2023-07-29T00:47:47;101389.47;;;21.02;100.00
7670;BME280;3877;42.562;27.636;2023-07-29T00:50:16;101381.75;;;21.02;100.00
7670;BME280;3877;42.562;27.636;2023-07-29T00:52:44;101389.41;;;20.98;100.00
7670;BME280;3877;42.562;27.636;2023-07-29T00:55:12;101400.81;;;20.98;100.00
7670;BME280;3877;42.562;27.636;2023-07-29T00:57:39;101382.00;;;20.93;100.00
7670;BME280;3877;42.562;27.636;2023-07-29T01:00:08;101393.75;;;20.92;100.00
7670;BME280;3877;42.562;27.636;2023-07-29T01:02:36;101391.69;;;20.89;100.00
7670;BME280;3877;42.562;27.636;2023-07-29T01:05:06;101382.69;;;20.87;100.00
7670;BME280;3877;42.562;27.636;2023-07-29T01:07:39;101381.84;;;20.86;100.00
7670;BME280;3877;42.562;27.636;2023-07-29T01:10:19;101390.03;;;20.88;100.00
7670;BME280;3877;42.562;27.636;2023-07-29T01:12:54;101366.19;;;20.77;100.00
7670;BME280;3877;42.562;27.636;2023-07-29T01:15:31;101374.97;;;20.87;100.00
7670;BME280;3877;42.562;27.636;2023-07-29T01:18:04;101367.25;;;20.88;100.00
7670;BME280;3877;42.562;27.636;2023-07-29T01:20:37;101371.69;;;20.85;100.00
7670;BME280;3877;42.562;27.636;2023-07-29T01:23:06;101370.41;;;20.83;100.00
7670;BME280;3877;42.562;27.636;2023-07-29T01:25:35;101363.03;;;20.82;100.00
7670;BME280;3877;42.562;27.636;2023-07-29T01:28:02;101371.22;;;20.83;100.00
7670;BME280;3877;42.562;27.636;2023-07-29T01:30:33;101361.53;;;20.88;100.00
7670;BME280;3877;42.562;27.636;2023-07-29T01:33:07;101368.91;;;20.89;100.00
7670;BME280;3877;42.562;27.636;2023-07-29T01:35:43;101377.44;;;20.89;100.00
7670;BME280;3877;42.562;27.636;2023-07-29T01:38:18;101366.94;;;20.93;100.00
7670;BME280;3877;42.562;27.636;2023-07-29T01:40:49;101365.34;;;20.95;100.00
7670;BME280;3877;42.562;27.636;2023-07-29T01:43:18;101365.03;;;21.01;100.00
7670;BME280;3877;42.562;27.636;2023-07-29T01:45:49;101376.50;;;21.04;100.00
7670;BME280;3877;42.562;27.636;2023-07-29T01:48:16;101375.63;;;21.00;100.00
7670;BME280;3877;42.562;27.636;2023-07-29T01:50:44;101372.16;;;20.91;100.00
7670;BME280;3877;42.562;27.636;2023-07-29T01:53:11;101364.94;;;20.74;100.00
7670;BME280;3877;42.562;27.636;2023-07-29T01:55:38;101381.72;;;20.79;100.00
7670;BME280;3877;42.562;27.636;2023-07-29T01:58:07;101385.84;;;20.82;100.00
7670;BME280;3877;42.562;27.636;2023-07-29T02:00:34;101382.81;;;20.94;100.00
7670;BME280;3877;42.562;27.636;2023-07-29T02:03:01;101380.28;;;20.89;100.00
7670;BME280;3877;42.562;27.636;2023-07-29T02:05:29;101378.00;;;20.98;100.00
7670;BME280;3877;42.562;27.636;2023-07-29T02:07:56;101311.69;;;20.56;100.00
7670;BME280;3877;42.562;27.636;2023-07-29T02:10:23;101345.97;;;20.82;100.00
7670;BME280;3877;42.562;27.636;2023-07-29T02:12:51;101384.28;;;21.07;100.00
7670;BME280;3877;42.562;27.636;2023-07-29T02:15:19;101385.47;;;21.06;100.00
7670;BME280;3877;42.562;27.636;2023-07-29T02:17:47;101383.97;;;21.12;100.00
7670;BME280;3877;42.562;27.636;2023-07-29T02:20:14;101388.03;;;21.11;100.00
7670;BME280;3877;42.562;27.636;2023-07-29T02:22:41;101392.91;;;21.11;100.00
7670;BME280;3877;42.562;27.636;2023-07-29T02:25:09;101389.63;;;21.09;100.00
7670;BME280;3877;42.562;27.636;2023-07-29T02:27:36;101381.44;;;21.07;100.00
7670;BME280;3877;42.562;27.636;2023-07-29T02:30:04;101379.78;;;21.06;100.00
7670;BME280;3877;42.562;27.636;2023-07-29T02:32:33;101368.84;;;21.08;100.00
7670;BME280;3877;42.562;27.636;2023-07-29T02:35:00;101375.28;;;21.05;100.00
7670;BME280;3877;42.562;27.636;2023-07-29T02:37:27;101368.28;;;20.99;100.00
7670;BME280;3877;42.562;27.636;2023-07-29T02:39:54;101370.72;;;21.01;100.00
7670;BME280;3877;42.562;27.636;2023-07-29T02:42:22;101366.72;;;21.05;100.00
7670;BME280;3877;42.562;27.636;2023-07-29T02:44:49;101373.66;;;21.04;100.00
7670;BME280;3877;42.562;27.636;2023-07-29T02:47:16;101383.41;;;21.03;100.00
7670;BME280;3877;42.562;27.636;2023-07-29T02:49:45;101387.13;;;21.07;100.00
7670;BME280;3877;42.562;27.636;2023-07-29T02:52:12;101395.38;;;21.12;100.00
7670;BME280;3877;42.562;27.636;2023-07-29T02:54:39;101377.13;;;20.94;100.00
7670;BME280;3877;42.562;27.636;2023-07-29T02:57:07;101393.34;;;21.13;100.00
7670;BME280;3877;42.562;27.636;2023-07-29T02:59:34;101399.00;;;21.09;100.00
7670;BME280;3877;42.562;27.636;2023-07-29T03:02:01;101396.50;;;21.08;100.00
7670;BME280;3877;42.562;27.636;2023-07-29T03:04:28;101408.59;;;21.01;100.00
7670;BME280;3877;42.562;27.636;2023-07-29T03:06:57;101409.00;;;21.00;100.00
7670;BME280;3877;42.562;27.636;2023-07-29T03:09:25;101409.81;;;21.00;100.00
7670;BME280;3877;42.562;27.636;2023-07-29T03:11:52;101419.56;;;20.99;100.00
7670;BME280;3877;42.562;27.636;2023-07-29T03:14:20;101407.28;;;20.95;100.00
7670;BME280;3877;42.562;27.636;2023-07-29T03:16:47;101408.16;;;20.99;100.00
7670;BME280;3877;42.562;27.636;2023-07-29T03:19:15;101409.81;;;21.00;100.00
7670;BME280;3877;42.562;27.636;2023-07-29T03:21:42;101402.16;;;21.04;100.00
7670;BME280;3877;42.562;27.636;2023-07-29T03:24:11;101411.53;;;21.05;100.00
7670;BME280;3877;42.562;27.636;2023-07-29T03:26:38;101403.34;;;21.03;100.00
7670;BME280;3877;42.562;27.636;2023-07-29T03:29:05;101405.88;;;21.08;100.00
7670;BME280;3877;42.562;27.636;2023-07-29T03:31:32;101405.13;;;21.11;100.00
7670;BME280;3877;42.562;27.636;2023-07-29T03:34:00;101406.03;;;21.15;100.00
7670;BME280;3877;42.562;27.636;2023-07-29T03:36:27;101415.03;;;21.17;100.00
7670;BME280;3877;42.562;27.636;2023-07-29T03:38:54;101406.19;;;21.22;100.00
7670;BME280;3877;42.562;27.636;2023-07-29T03:41:23;101413.69;;;21.34;100.00
7670;BME280;3877;42.562;27.636;2023-07-29T03:43:51;101404.09;;;21.42;100.00
7670;BME280;3877;42.562;27.636;2023-07-29T03:46:18;101407.06;;;21.49;100.00
7670;BME280;3877;42.562;27.636;2023-07-29T03:48:47;101403.50;;;21.56;100.00
7670;BME280;3877;42.562;27.636;2023-07-29T03:51:14;101406.03;;;21.61;100.00
7670;BME280;3877;42.562;27.636;2023-07-29T03:53:41;101402.00;;;21.62;100.00
7670;BME280;3877;42.562;27.636;2023-07-29T03:56:09;101412.63;;;21.65;100.00
7670;BME280;3877;42.562;27.636;2023-07-29T03:58:38;101410.97;;;21.64;100.00
7670;BME280;3877;42.562;27.636;2023-07-29T04:01:05;101402.41;;;21.64;100.00
7670;BME280;3877;42.562;27.636;2023-07-29T04:03:33;101406.97;;;21.68;100.00
7670;BME280;3877;42.562;27.636;2023-07-29T04:06:01;101407.16;;;21.79;100.00
7670;BME280;3877;42.562;27.636;2023-07-29T04:08:28;101410.44;;;21.81;100.00
7670;BME280;3877;42.562;27.636;2023-07-29T04:10:55;101406.38;;;21.82;100.00
7670;BME280;3877;42.562;27.636;2023-07-29T04:13:23;101412.19;;;21.89;100.00
7670;BME280;3877;42.562;27.636;2023-07-29T04:15:51;101398.75;;;21.90;100.00
7670;BME280;3877;42.562;27.636;2023-07-29T04:18:19;101424.59;;;22.00;100.00
7670;BME280;3877;42.562;27.636;2023-07-29T04:20:46;101416.63;;;22.09;100.00
7670;BME280;3877;42.562;27.636;2023-07-29T04:23:13;101398.59;;;22.05;100.00
7670;BME280;3877;42.562;27.636;2023-07-29T04:25:40;101424.59;;;22.27;100.00
7670;BME280;3877;42.562;27.636;2023-07-29T04:28:08;101417.03;;;22.38;100.00
7670;BME280;3877;42.562;27.636;2023-07-29T04:30:35;101427.66;;;22.41;100.00
7670;BME280;3877;42.562;27.636;2023-07-29T04:33:03;101422.81;;;22.45;100.00
7670;BME280;3877;42.562;27.636;2023-07-29T04:35:31;101426.09;;;22.47;100.00
7670;BME280;3877;42.562;27.636;2023-07-29T04:37:58;101422.47;;;22.50;100.00
7670;BME280;3877;42.562;27.636;2023-07-29T04:40:25;101416.38;;;22.51;100.00
7670;BME280;3877;42.562;27.636;2023-07-29T04:42:52;101427.91;;;22.62;100.00
7670;BME280;3877;42.562;27.636;2023-07-29T04:45:19;101426.44;;;22.72;100.00
7670;BME280;3877;42.562;27.636;2023-07-29T04:47:47;101422.31;;;22.69;100.00
7670;BME280;3877;42.562;27.636;2023-07-29T04:50:16;101424.06;;;22.77;100.00
7670;BME280;3877;42.562;27.636;2023-07-29T04:52:43;101422.66;;;22.97;100.00
7670;BME280;3877;42.562;27.636;2023-07-29T04:55:10;101417.56;;;23.14;100.00
7670;BME280;3877;42.562;27.636;2023-07-29T04:57:38;101417.69;;;23.28;100.00
7670;BME280;3877;42.562;27.636;2023-07-29T05:00:06;101412.63;;;23.51;100.00
7670;BME280;3877;42.562;27.636;2023-07-29T05:02:33;101406.13;;;23.58;100.00
7670;BME280;3877;42.562;27.636;2023-07-29T05:05:00;101399.69;;;23.71;100.00
7670;BME280;3877;42.562;27.636;2023-07-29T05:07:29;101399.50;;;23.97;100.00
7670;BME280;3877;42.562;27.636;2023-07-29T05:09:57;101419.88;;;24.54;100.00
7670;BME280;3877;42.562;27.636;2023-07-29T05:12:24;101417.63;;;24.99;100.00
7670;BME280;3877;42.562;27.636;2023-07-29T05:14:51;101409.84;;;25.10;100.00
7670;BME280;3877;42.562;27.636;2023-07-29T05:17:18;101422.59;;;25.30;100.00
7670;BME280;3877;42.562;27.636;2023-07-29T05:19:46;101415.25;;;25.47;100.00
7670;BME280;3877;42.562;27.636;2023-07-29T05:22:13;101406.63;;;26.00;100.00
7670;BME280;3877;42.562;27.636;2023-07-29T05:24:42;101398.53;;;26.96;100.00
7670;BME280;3877;42.562;27.636;2023-07-29T05:27:10;101396.53;;;27.96;100.00
7670;BME280;3877;42.562;27.636;2023-07-29T05:29:37;101291.38;;;27.84;100.00
7670;BME280;3877;42.562;27.636;2023-07-29T05:32:05;101395.66;;;29.04;100.00
7670;BME280;3877;42.562;27.636;2023-07-29T05:34:32;101383.06;;;29.48;100.00
7670;BME280;3877;42.562;27.636;2023-07-29T05:36:59;101385.75;;;29.59;100.00
7670;BME280;3877;42.562;27.636;2023-07-29T05:39:27;101379.88;;;29.89;100.00
7670;BME280;3877;42.562;27.636;2023-07-29T05:41:55;101393.22;;;29.56;100.00
7670;BME280;3877;42.562;27.636;2023-07-29T05:44:23;101390.78;;;29.55;100.00
7670;BME280;3877;42.562;27.636;2023-07-29T05:46:50;101392.69;;;29.38;100.00
7670;BME280;3877;42.562;27.636;2023-07-29T05:49:17;101400.28;;;29.55;100.00
7670;BME280;3877;42.562;27.636;2023-07-29T05:51:44;101400.66;;;29.31;100.00
7670;BME280;3877;42.562;27.636;2023-07-29T05:54:11;101398.53;;;29.35;100.00
7670;BME280;3877;42.562;27.636;2023-07-29T05:56:39;101397.56;;;29.45;100.00
7670;BME280;3877;42.562;27.636;2023-07-29T05:59:07;101397.94;;;29.70;100.00
7670;BME280;3877;42.562;27.636;2023-07-29T06:01:34;101402.19;;;29.08;100.00
7670;BME280;3877;42.562;27.636;2023-07-29T06:04:02;101401.53;;;28.97;100.00
7670;BME280;3877;42.562;27.636;2023-07-29T06:06:29;101401.59;;;28.94;100.00
7670;BME280;3877;42.562;27.636;2023-07-29T06:08:56;101392.44;;;28.99;100.00
7670;BME280;3877;42.562;27.636;2023-07-29T06:11:24;101402.03;;;29.19;100.00
7670;BME280;3877;42.562;27.636;2023-07-29T06:13:52;101405.00;;;28.85;100.00
7670;BME280;3877;42.562;27.636;2023-07-29T06:16:21;101407.22;;;28.70;100.00
7670;BME280;3877;42.562;27.636;2023-07-29T06:18:48;101403.84;;;28.45;100.00
7670;BME280;3877;42.562;27.636;2023-07-29T06:21:15;101403.44;;;28.43;100.00
7670;BME280;3877;42.562;27.636;2023-07-29T06:23:44;101404.50;;;28.60;100.00
7670;BME280;3877;42.562;27.636;2023-07-29T06:26:11;101401.44;;;28.70;100.00
7670;BME280;3877;42.562;27.636;2023-07-29T06:28:39;101397.03;;;28.96;100.00
7670;BME280;3877;42.562;27.636;2023-07-29T06:31:06;101398.75;;;28.90;100.00
7670;BME280;3877;42.562;27.636;2023-07-29T06:33:35;101402.22;;;28.78;100.00
7670;BME280;3877;42.562;27.636;2023-07-29T06:36:02;101403.69;;;28.59;100.00
7670;BME280;3877;42.562;27.636;2023-07-29T06:38:29;101404.56;;;28.53;100.00
7670;BME280;3877;42.562;27.636;2023-07-29T06:40:57;101395.31;;;28.68;100.00
7670;BME280;3877;42.562;27.636;2023-07-29T06:43:24;101396.13;;;28.69;100.00
7670;BME280;3877;42.562;27.636;2023-07-29T06:45:51;101397.84;;;28.63;100.00
7670;BME280;3877;42.562;27.636;2023-07-29T06:48:18;101400.59;;;28.77;100.00
7670;BME280;3877;42.562;27.636;2023-07-29T06:50:47;101386.97;;;28.78;100.00
7670;BME280;3877;42.562;27.636;2023-07-29T06:53:15;101385.06;;;28.98;100.00
7670;BME280;3877;42.562;27.636;2023-07-29T06:55:43;101389.88;;;29.04;100.00
7670;BME280;3877;42.562;27.636;2023-07-29T06:58:10;101385.53;;;29.20;100.00
7670;BME280;3877;42.562;27.636;2023-07-29T07:00:37;101379.91;;;29.12;100.00
7670;BME280;3877;42.562;27.636;2023-07-29T07:03:05;101375.53;;;29.01;100.00
7670;BME280;3877;42.562;27.636;2023-07-29T07:05:32;101381.84;;;28.92;100.00
7670;BME280;3877;42.562;27.636;2023-07-29T07:08:00;101384.31;;;28.90;100.00
7670;BME280;3877;42.562;27.636;2023-07-29T07:10:28;101382.88;;;28.75;100.00
7670;BME280;3877;42.562;27.636;2023-07-29T07:12:56;101383.84;;;28.65;100.00
7670;BME280;3877;42.562;27.636;2023-07-29T07:15:23;101384.50;;;28.46;100.00
7670;BME280;3877;42.562;27.636;2023-07-29T07:17:50;101376.03;;;28.32;100.00
7670;BME280;3877;42.562;27.636;2023-07-29T07:20:18;101374.91;;;28.18;100.00
7670;BME280;3877;42.562;27.636;2023-07-29T07:22:45;101380.34;;;28.09;100.00
7670;BME280;3877;42.562;27.636;2023-07-29T07:25:14;101377.25;;;27.93;100.00
7670;BME280;3877;42.562;27.636;2023-07-29T07:27:41;101385.31;;;28.05;100.00
7670;BME280;3877;42.562;27.636;2023-07-29T07:30:08;101377.94;;;28.04;100.00
7670;BME280;3877;42.562;27.636;2023-07-29T07:32:36;101373.75;;;28.09;100.00
7670;BME280;3877;42.562;27.636;2023-07-29T07:35:03;101373.44;;;28.03;100.00
7670;BME280;3877;42.562;27.636;2023-07-29T07:37:31;101372.22;;;28.01;100.00
7670;BME280;3877;42.562;27.636;2023-07-29T07:39:58;101371.38;;;28.00;100.00
7670;BME280;3877;42.562;27.636;2023-07-29T07:42:27;101373.91;;;27.98;100.00
7670;BME280;3877;42.562;27.636;2023-07-29T07:44:54;101375.03;;;28.08;100.00
7670;BME280;3877;42.562;27.636;2023-07-29T07:47:21;101348.81;;;27.95;100.00
7670;BME280;3877;42.562;27.636;2023-07-29T07:49:48;101372.50;;;28.17;100.00
7670;BME280;3877;42.562;27.636;2023-07-29T07:52:16;101364.56;;;28.24;100.00
7670;BME280;3877;42.562;27.636;2023-07-29T07:54:43;101362.47;;;28.28;100.00
7670;BME280;3877;42.562;27.636;2023-07-29T07:57:11;101360.31;;;28.36;100.00
7670;BME280;3877;42.562;27.636;2023-07-29T07:59:39;101357.75;;;28.42;100.00
7670;BME280;3877;42.562;27.636;2023-07-29T08:02:06;101356.81;;;28.52;100.00
7670;BME280;3877;42.562;27.636;2023-07-29T08:04:33;101351.72;;;28.63;100.00
7670;BME280;3877;42.562;27.636;2023-07-29T08:07:00;101326.38;;;28.51;100.00
7670;BME280;3877;42.562;27.636;2023-07-29T08:09:28;101341.84;;;28.64;100.00
7670;BME280;3877;42.562;27.636;2023-07-29T08:11:55;101354.72;;;28.56;100.00
7670;BME280;3877;42.562;27.636;2023-07-29T08:14:22;101330.50;;;28.50;100.00
7670;BME280;3877;42.562;27.636;2023-07-29T08:16:51;101348.56;;;28.54;100.00
7670;BME280;3877;42.562;27.636;2023-07-29T08:19:18;101335.31;;;28.60;100.00
7670;BME280;3877;42.562;27.636;2023-07-29T08:21:45;101340.34;;;28.52;100.00
7670;BME280;3877;42.562;27.636;2023-07-29T08:24:12;101338.66;;;28.55;100.00
7670;BME280;3877;42.562;27.636;2023-07-29T08:26:39;101336.16;;;28.57;100.00
7670;BME280;3877;42.562;27.636;2023-07-29T08:29:07;101336.16;;;28.57;100.00
7670;BME280;3877;42.562;27.636;2023-07-29T08:31:34;101325.03;;;28.59;100.00
7670;BME280;3877;42.562;27.636;2023-07-29T08:34:02;101330.19;;;28.75;100.00
7670;BME280;3877;42.562;27.636;2023-07-29T08:36:29;101327.63;;;28.80;100.00
7670;BME280;3877;42.562;27.636;2023-07-29T08:38:57;101331.72;;;28.83;100.00
7670;BME280;3877;42.562;27.636;2023-07-29T08:41:26;101321.75;;;28.87;100.00
7670;BME280;3877;42.562;27.636;2023-07-29T08:44:00;101319.16;;;28.96;100.00
7670;BME280;3877;42.562;27.636;2023-07-29T08:46:29;101325.13;;;29.09;100.00
7670;BME280;3877;42.562;27.636;2023-07-29T08:48:56;101324.44;;;29.25;100.00
7670;BME280;3877;42.562;27.636;2023-07-29T08:51:26;101312.03;;;29.31;100.00
7670;BME280;3877;42.562;27.636;2023-07-29T08:53:53;101298.00;;;29.30;100.00
7670;BME280;3877;42.562;27.636;2023-07-29T08:56:21;101307.97;;;29.25;100.00
7670;BME280;3877;42.562;27.636;2023-07-29T08:58:49;101299.72;;;29.24;100.00
7670;BME280;3877;42.562;27.636;2023-07-29T09:01:17;101297.53;;;29.35;100.00
7670;BME280;3877;42.562;27.636;2023-07-29T09:03:44;101295.00;;;29.37;100.00
7670;BME280;3877;42.562;27.636;2023-07-29T09:06:12;101300.09;;;29.52;100.00
7670;BME280;3877;42.562;27.636;2023-07-29T09:08:43;101290.59;;;29.52;100.00
7670;BME280;3877;42.562;27.636;2023-07-29T09:11:13;101295.38;;;29.39;100.00
7670;BME280;3877;42.562;27.636;2023-07-29T09:13:41;101289.28;;;29.33;100.00
7670;BME280;3877;42.562;27.636;2023-07-29T09:16:09;101289.75;;;29.32;100.00
7670;BME280;3877;42.562;27.636;2023-07-29T09:18:37;101288.00;;;29.11;100.00
7670;BME280;3877;42.562;27.636;2023-07-29T09:21:04;101285.94;;;29.11;100.00
7670;BME280;3877;42.562;27.636;2023-07-29T09:23:39;101281.56;;;29.27;100.00
7670;BME280;3877;42.562;27.636;2023-07-29T09:26:08;101284.66;;;29.39;100.00
7670;BME280;3877;42.562;27.636;2023-07-29T09:28:38;101251.34;;;29.35;100.00
7670;BME280;3877;42.562;27.636;2023-07-29T09:31:06;101264.34;;;29.66;100.00
7670;BME280;3877;42.562;27.636;2023-07-29T09:33:34;101279.63;;;29.86;100.00
7670;BME280;3877;42.562;27.636;2023-07-29T09:36:07;101274.44;;;30.01;100.00
7670;BME280;3877;42.562;27.636;2023-07-29T09:38:36;101252.25;;;29.94;100.00
7670;BME280;3877;42.562;27.636;2023-07-29T09:41:03;101281.22;;;29.91;100.00
7670;BME280;3877;42.562;27.636;2023-07-29T09:43:34;101280.94;;;30.05;100.00
7670;BME280;3877;42.562;27.636;2023-07-29T09:46:02;101279.91;;;30.15;100.00
7670;BME280;3877;42.562;27.636;2023-07-29T09:48:33;101278.94;;;30.22;100.00
7670;BME280;3877;42.562;27.636;2023-07-29T09:51:01;101270.19;;;30.06;100.00
7670;BME280;3877;42.562;27.636;2023-07-29T09:53:39;101280.72;;;30.16;100.00
7670;BME280;3877;42.562;27.636;2023-07-29T09:56:07;101282.03;;;29.91;100.00
7670;BME280;3877;42.562;27.636;2023-07-29T09:58:35;101280.31;;;29.51;100.00
7670;BME280;3877;42.562;27.636;2023-07-29T10:01:04;101282.94;;;29.42;100.00
7670;BME280;3877;42.562;27.636;2023-07-29T10:03:31;101275.59;;;29.37;100.00
7670;BME280;3877;42.562;27.636;2023-07-29T10:06:00;101286.78;;;29.59;100.00
7670;BME280;3877;42.562;27.636;2023-07-29T10:08:29;101285.84;;;29.65;100.00
7670;BME280;3877;42.562;27.636;2023-07-29T10:10:58;101279.44;;;29.54;100.00
7670;BME280;3877;42.562;27.636;2023-07-29T10:13:26;101277.69;;;29.60;100.00
7670;BME280;3877;42.562;27.636;2023-07-29T10:15:55;101272.03;;;29.53;100.00
7670;BME280;3877;42.562;27.636;2023-07-29T10:18:22;101271.13;;;29.56;100.00
7670;BME280;3877;42.562;27.636;2023-07-29T10:20:51;101258.94;;;29.48;100.00
7670;BME280;3877;42.562;27.636;2023-07-29T10:23:22;101257.91;;;29.59;100.00
7670;BME280;3877;42.562;27.636;2023-07-29T10:25:59;101260.84;;;29.78;100.00
7670;BME280;3877;42.562;27.636;2023-07-29T10:28:30;101266.06;;;29.64;100.00
7670;BME280;3877;42.562;27.636;2023-07-29T10:30:59;101262.38;;;29.40;100.00
7670;BME280;3877;42.562;27.636;2023-07-29T10:33:27;101268.75;;;29.28;100.00
7670;BME280;3877;42.562;27.636;2023-07-29T10:35:55;101268.53;;;29.42;100.00
7670;BME280;3877;42.562;27.636;2023-07-29T10:38:23;101251.59;;;29.44;100.00
7670;BME280;3877;42.562;27.636;2023-07-29T10:40:52;101255.22;;;29.48;100.00
7670;BME280;3877;42.562;27.636;2023-07-29T10:43:25;101252.97;;;29.36;100.00
7670;BME280;3877;42.562;27.636;2023-07-29T10:45:52;101247.56;;;29.38;100.00
7670;BME280;3877;42.562;27.636;2023-07-29T10:48:45;101256.72;;;29.33;100.00
7670;BME280;3877;42.562;27.636;2023-07-29T10:51:26;101257.94;;;29.35;100.00
7670;BME280;3877;42.562;27.636;2023-07-29T10:53:56;101259.47;;;29.17;100.00
7670;BME280;3877;42.562;27.636;2023-07-29T10:56:28;101254.63;;;29.10;100.00
7670;BME280;3877;42.562;27.636;2023-07-29T10:58:56;101248.19;;;29.26;100.00
7670;BME280;3877;42.562;27.636;2023-07-29T11:01:28;101256.84;;;29.26;100.00
7670;BME280;3877;42.562;27.636;2023-07-29T11:04:24;101258.97;;;28.98;100.00
7670;BME280;3877;42.562;27.636;2023-07-29T11:07:23;101249.16;;;28.92;100.00
7670;BME280;3877;42.562;27.636;2023-07-29T11:09:57;101246.47;;;29.05;100.00
7670;BME280;3877;42.562;27.636;2023-07-29T11:12:39;101254.56;;;29.13;100.00
7670;BME280;3877;42.562;27.636;2023-07-29T11:15:18;101247.88;;;29.20;100.00
7670;BME280;3877;42.562;27.636;2023-07-29T11:17:47;101244.47;;;29.25;100.00
7670;BME280;3877;42.562;27.636;2023-07-29T11:20:16;101247.94;;;29.17;100.00
7670;BME280;3877;42.562;27.636;2023-07-29T11:22:44;101211.28;;;28.90;100.00
7670;BME280;3877;42.562;27.636;2023-07-29T11:25:13;101235.94;;;28.68;100.00
7670;BME280;3877;42.562;27.636;2023-07-29T11:27:40;101186.38;;;28.50;100.00
7670;BME280;3877;42.562;27.636;2023-07-29T11:30:08;101239.72;;;28.61;100.00
7670;BME280;3877;42.562;27.636;2023-07-29T11:32:37;101250.50;;;28.57;100.00
7670;BME280;3877;42.562;27.636;2023-07-29T11:35:06;101238.34;;;28.46;100.00
7670;BME280;3877;42.562;27.636;2023-07-29T11:37:37;101234.16;;;28.51;100.00
7670;BME280;3877;42.562;27.636;2023-07-29T11:40:06;101235.59;;;28.62;100.00
7670;BME280;3877;42.562;27.636;2023-07-29T11:42:35;101243.06;;;28.60;100.00
7670;BME280;3877;42.562;27.636;2023-07-29T11:45:02;101236.63;;;28.49;100.00
7670;BME280;3877;42.562;27.636;2023-07-29T11:47:32;101241.25;;;28.43;100.00
7670;BME280;3877;42.562;27.636;2023-07-29T11:50:03;101240.13;;;28.37;100.00
7670;BME280;3877;42.562;27.636;2023-07-29T11:52:31;101205.91;;;28.39;100.00
7670;BME280;3877;42.562;27.636;2023-07-29T11:55:02;101234.69;;;28.69;100.00
7670;BME280;3877;42.562;27.636;2023-07-29T11:57:30;101237.88;;;28.78;100.00
7670;BME280;3877;42.562;27.636;2023-07-29T11:59:58;101228.47;;;28.74;100.00
7670;BME280;3877;42.562;27.636;2023-07-29T12:02:25;101218.81;;;28.84;100.00
7670;BME280;3877;42.562;27.636;2023-07-29T12:04:53;101115.16;;;28.23;100.00
7670;BME280;3877;42.562;27.636;2023-07-29T12:07:20;101213.06;;;28.84;100.00
7670;BME280;3877;42.562;27.636;2023-07-29T12:09:48;101228.59;;;28.90;100.00
7670;BME280;3877;42.562;27.636;2023-07-29T12:12:17;101218.31;;;28.89;100.00
7670;BME280;3877;42.562;27.636;2023-07-29T12:14:45;101214.41;;;28.99;100.00
7670;BME280;3877;42.562;27.636;2023-07-29T12:17:13;101220.19;;;28.99;100.00
7670;BME280;3877;42.562;27.636;2023-07-29T12:19:41;101223.72;;;29.10;100.00
7670;BME280;3877;42.562;27.636;2023-07-29T12:22:10;101219.09;;;28.93;100.00
7670;BME280;3877;42.562;27.636;2023-07-29T12:24:38;101220.59;;;29.01;100.00
7670;BME280;3877;42.562;27.636;2023-07-29T12:27:10;101217.19;;;28.83;100.00
7670;BME280;3877;42.562;27.636;2023-07-29T12:29:42;101215.47;;;28.86;100.00
7670;BME280;3877;42.562;27.636;2023-07-29T12:32:10;101203.38;;;28.71;100.00
7670;BME280;3877;42.562;27.636;2023-07-29T12:34:38;101201.81;;;28.63;100.00
7670;BME280;3877;42.562;27.636;2023-07-29T12:37:06;101210.19;;;28.54;100.00
7670;BME280;3877;42.562;27.636;2023-07-29T12:39:39;101205.31;;;28.51;100.00
7670;BME280;3877;42.562;27.636;2023-07-29T12:42:06;101206.16;;;28.78;100.00
7670;BME280;3877;42.562;27.636;2023-07-29T12:44:34;101211.25;;;28.94;100.00
7670;BME280;3877;42.562;27.636;2023-07-29T12:47:05;101201.28;;;28.98;100.00
7670;BME280;3877;42.562;27.636;2023-07-29T12:49:34;101199.00;;;28.86;100.00
7670;BME280;3877;42.562;27.636;2023-07-29T12:52:01;101201.72;;;28.70;100.00
7670;BME280;3877;42.562;27.636;2023-07-29T12:54:28;101209.56;;;28.69;100.00
7670;BME280;3877;42.562;27.636;2023-07-29T12:56:55;101207.31;;;28.81;100.00